createdAt,value
2016-12-08T00:00:33.579Z,0
2016-12-08T00:01:33.299Z,0
2016-12-08T00:02:33.628Z,0
2016-12-08T00:03:33.649Z,0
2016-12-08T00:04:33.377Z,0
2016-12-08T00:05:33.724Z,0
2016-12-08T00:06:33.739Z,0
2016-12-08T00:07:34.071Z,0
2016-12-08T00:08:33.484Z,0
2016-12-08T00:09:33.817Z,0
2016-12-08T00:10:33.548Z,0
2016-12-08T00:11:33.883Z,0
2016-12-08T00:12:33.890Z,0
2016-12-08T00:13:34.538Z,0
2016-12-08T00:14:34.261Z,0
2016-12-08T00:15:33.681Z,0
2016-12-08T00:16:34.302Z,0
2016-12-08T00:17:34.638Z,0
2016-12-08T00:18:34.667Z,0
2016-12-08T00:19:34.421Z,0
2016-12-08T00:20:34.107Z,0
2016-12-08T00:21:34.145Z,0
2016-12-08T00:22:33.857Z,0
2016-12-08T00:23:34.182Z,0
2016-12-08T00:24:33.918Z,0
2016-12-08T00:25:34.544Z,0
2016-12-08T00:26:34.280Z,0
2016-12-08T00:27:34.305Z,0
2016-12-08T00:28:34.334Z,0
2016-12-08T00:29:34.343Z,0
2016-12-08T00:30:34.375Z,0
2016-12-08T00:31:34.404Z,0
2016-12-08T00:32:34.737Z,0
2016-12-08T00:33:34.150Z,0
2016-12-08T00:34:34.810Z,0
2016-12-08T00:35:34.516Z,0
2016-12-08T00:36:34.535Z,0
2016-12-08T00:37:34.872Z,0
2016-12-08T00:38:34.587Z,0
2016-12-08T00:39:34.613Z,0
2016-12-08T00:40:34.342Z,0
2016-12-08T00:41:34.662Z,0
2016-12-08T00:42:35.304Z,0
2016-12-08T00:43:34.725Z,0
2016-12-08T00:44:34.433Z,0
2016-12-08T00:45:34.773Z,0
2016-12-08T00:46:35.114Z,0
2016-12-08T00:47:34.835Z,0
2016-12-08T00:48:34.551Z,0
2016-12-08T00:49:35.488Z,0
2016-12-08T00:50:34.909Z,0
2016-12-08T00:51:34.625Z,0
2016-12-08T00:52:34.953Z,0
2016-12-08T00:53:35.287Z,0
2016-12-08T00:54:35.308Z,0
2016-12-08T00:55:34.745Z,0
2016-12-08T00:56:35.671Z,0
2016-12-08T00:57:35.429Z,0
2016-12-08T00:58:35.110Z,0
2016-12-08T00:59:35.755Z,0
2016-12-08T01:00:35.476Z,0
2016-12-08T01:01:35.197Z,0
2016-12-08T01:02:35.221Z,0
2016-12-08T01:03:35.564Z,0
2016-12-08T01:04:35.275Z,0
2016-12-08T01:05:35.612Z,0
2016-12-08T01:06:35.641Z,0
2016-12-08T01:07:35.365Z,0
2016-12-08T01:08:35.391Z,0
2016-12-08T01:09:36.027Z,0
2016-12-08T01:10:35.430Z,0
2016-12-08T01:11:36.085Z,0
2016-12-08T01:12:35.479Z,0
2016-12-08T01:13:35.217Z,0
2016-12-08T01:14:35.542Z,0
2016-12-08T01:15:35.559Z,0
2016-12-08T01:16:36.200Z,0
2016-12-08T01:17:35.912Z,0
2016-12-08T01:18:35.345Z,0
2016-12-08T01:19:36.282Z,0
2016-12-08T01:20:35.709Z,0
2016-12-08T01:21:35.736Z,0
2016-12-08T01:22:35.753Z,0
2016-12-08T01:23:36.089Z,0
2016-12-08T01:24:35.814Z,0
2016-12-08T01:25:36.136Z,0
2016-12-08T01:26:36.151Z,0
2016-12-08T01:27:35.888Z,0
2016-12-08T01:28:36.234Z,0
2016-12-08T01:29:35.934Z,0
2016-12-08T01:30:36.274Z,0
2016-12-08T01:31:35.995Z,0
2016-12-08T01:32:35.711Z,0
2016-12-08T01:33:36.045Z,0
2016-12-08T01:34:36.065Z,0
2016-12-08T01:35:35.802Z,0
2016-12-08T01:36:36.459Z,0
2016-12-08T01:37:36.460Z,0
2016-12-08T01:38:36.172Z,0
2016-12-08T01:39:36.197Z,0
2016-12-08T01:40:36.225Z,0
2016-12-08T01:41:36.546Z,0
2016-12-08T01:42:36.272Z,0
2016-12-08T01:43:36.614Z,0
2016-12-08T01:44:36.032Z,0
2016-12-08T01:45:36.354Z,0
2016-12-08T01:46:36.070Z,0
2016-12-08T01:47:36.124Z,0
2016-12-08T01:48:36.124Z,0
2016-12-08T01:49:36.463Z,0
2016-12-08T01:50:36.489Z,0
2016-12-08T01:51:36.825Z,0
2016-12-08T01:52:36.542Z,0
2016-12-08T01:53:36.259Z,0
2016-12-08T01:54:36.288Z,0
2016-12-08T01:55:36.307Z,0
2016-12-08T01:56:36.948Z,0
2016-12-08T01:57:36.981Z,0
2016-12-08T01:58:36.710Z,0
2016-12-08T01:59:36.716Z,0
2016-12-08T02:00:36.754Z,0
2016-12-08T02:01:37.387Z,0
2016-12-08T02:02:36.499Z,0
2016-12-08T02:03:37.132Z,0
2016-12-08T02:04:36.561Z,0
2016-12-08T02:05:37.197Z,0
2016-12-08T02:06:37.214Z,0
2016-12-08T02:07:36.631Z,0
2016-12-08T02:08:36.950Z,0
2016-12-08T02:09:36.979Z,0
2016-12-08T02:10:37.006Z,0
2016-12-08T02:11:37.045Z,0
2016-12-08T02:12:37.664Z,0
2016-12-08T02:13:37.701Z,0
2016-12-08T02:14:36.810Z,0
2016-12-08T02:15:37.455Z,0
2016-12-08T02:16:37.156Z,0
2016-12-08T02:17:37.492Z,0
2016-12-08T02:18:36.926Z,0
2016-12-08T02:19:37.545Z,0
2016-12-08T02:20:36.966Z,0
2016-12-08T02:21:37.902Z,0
2016-12-08T02:22:37.318Z,0
2016-12-08T02:23:37.967Z,0
2016-12-08T02:24:37.984Z,0
2016-12-08T02:25:37.133Z,0
2016-12-08T02:26:37.429Z,0
2016-12-08T02:27:37.747Z,0
2016-12-08T02:28:37.464Z,0
2016-12-08T02:29:38.114Z,0
2016-12-08T02:30:37.858Z,0
2016-12-08T02:31:38.166Z,0
2016-12-08T02:32:38.186Z,0
2016-12-08T02:33:37.311Z,0
2016-12-08T02:34:37.619Z,0
2016-12-08T02:35:37.363Z,0
2016-12-08T02:36:38.296Z,0
2016-12-08T02:37:38.027Z,0
2016-12-08T02:38:37.761Z,0
2016-12-08T02:39:37.783Z,0
2016-12-08T02:40:38.098Z,0
2016-12-08T02:41:38.424Z,0
2016-12-08T02:42:37.540Z,0
2016-12-08T02:43:38.173Z,0
2016-12-08T02:44:38.214Z,0
2016-12-08T02:45:38.229Z,0
2016-12-08T02:46:37.951Z,0
2016-12-08T02:47:37.969Z,0
2016-12-08T02:48:38.001Z,0
2016-12-08T02:49:38.321Z,0
2016-12-08T02:50:38.058Z,0
2016-12-08T02:51:38.388Z,0
2016-12-08T02:52:38.404Z,0
2016-12-08T02:53:38.440Z,0
2016-12-08T02:54:37.857Z,0
2016-12-08T02:55:38.182Z,0
2016-12-08T02:56:38.511Z,0
2016-12-08T02:57:38.231Z,0
2016-12-08T02:58:38.265Z,0
2016-12-08T02:59:38.285Z,0
2016-12-08T03:00:38.622Z,0
2016-12-08T03:01:38.338Z,0
2016-12-08T03:02:38.671Z,0
2016-12-08T03:03:38.696Z,0
2016-12-08T03:04:38.116Z,0
2016-12-08T03:05:39.061Z,0
2016-12-08T03:06:38.470Z,0
2016-12-08T03:07:38.807Z,0
2016-12-08T03:08:38.515Z,0
2016-12-08T03:09:38.244Z,0
2016-12-08T03:10:39.180Z,0
2016-12-08T03:11:38.607Z,0
2016-12-08T03:12:38.639Z,0
2016-12-08T03:13:38.971Z,0
2016-12-08T03:14:39.283Z,0
2016-12-08T03:15:38.705Z,0
2016-12-08T03:16:39.029Z,0
2016-12-08T03:17:39.053Z,0
2016-12-08T03:18:38.782Z,0
2016-12-08T03:19:39.115Z,0
2016-12-08T03:20:39.130Z,0
2016-12-08T03:21:38.864Z,0
2016-12-08T03:22:38.877Z,0
2016-12-08T03:23:38.905Z,0
2016-12-08T03:24:38.934Z,0
2016-12-08T03:25:39.267Z,0
2016-12-08T03:26:38.704Z,0
2016-12-08T03:27:39.009Z,0
2016-12-08T03:28:39.344Z,0
2016-12-08T03:29:38.757Z,0
2016-12-08T03:30:39.384Z,0
2016-12-08T03:31:38.815Z,0
2016-12-08T03:32:39.148Z,0
2016-12-08T03:33:39.184Z,0
2016-12-08T03:34:39.192Z,0
2016-12-08T03:35:38.906Z,0
2016-12-08T03:36:39.249Z,0
2016-12-08T03:37:39.889Z,0
2016-12-08T03:38:39.299Z,0
2016-12-08T03:39:39.340Z,0
2016-12-08T03:40:39.646Z,0
2016-12-08T03:41:39.669Z,0
2016-12-08T03:42:40.005Z,0
2016-12-08T03:43:39.726Z,0
2016-12-08T03:44:39.745Z,0
2016-12-08T03:45:39.786Z,0
2016-12-08T03:46:39.815Z,0
2016-12-08T03:47:39.527Z,0
2016-12-08T03:48:39.545Z,0
2016-12-08T03:49:39.573Z,0
2016-12-08T03:50:39.898Z,0
2016-12-08T03:51:39.617Z,0
2016-12-08T03:52:40.255Z,0
2016-12-08T03:53:39.691Z,0
2016-12-08T03:54:40.012Z,0
2016-12-08T03:55:40.337Z,0
2016-12-08T03:56:40.065Z,0
2016-12-08T03:57:40.090Z,0
2016-12-08T03:58:40.412Z,0
2016-12-08T03:59:40.151Z,0
2016-12-08T04:00:39.561Z,0
2016-12-08T04:01:39.890Z,0
2016-12-08T04:02:39.919Z,0
2016-12-08T04:03:40.234Z,0
2016-12-08T04:04:40.579Z,0
2016-12-08T04:05:39.685Z,0
2016-12-08T04:06:40.017Z,0
2016-12-08T04:07:40.349Z,0
2016-12-08T04:08:40.663Z,0
2016-12-08T04:09:40.098Z,0
2016-12-08T04:10:40.128Z,0
2016-12-08T04:11:40.449Z,0
2016-12-08T04:12:40.173Z,0
2016-12-08T04:13:39.894Z,0
2016-12-08T04:14:40.530Z,0
2016-12-08T04:15:40.554Z,0
2016-12-08T04:16:40.276Z,0
2016-12-08T04:17:40.306Z,0
2016-12-08T04:18:40.638Z,0
2016-12-08T04:19:40.656Z,0
2016-12-08T04:20:40.995Z,0
2016-12-08T04:21:40.716Z,0
2016-12-08T04:22:40.716Z,0
2016-12-08T04:23:40.746Z,0
2016-12-08T04:24:40.489Z,0
2016-12-08T04:25:40.518Z,0
2016-12-08T04:26:40.835Z,0
2016-12-08T04:27:40.874Z,0
2016-12-08T04:28:41.183Z,0
2016-12-08T04:29:40.909Z,0
2016-12-08T04:30:40.330Z,0
2016-12-08T04:31:40.664Z,0
2016-12-08T04:32:40.407Z,0
2016-12-08T04:33:40.712Z,0
2016-12-08T04:34:41.048Z,0
2016-12-08T04:35:40.776Z,0
2016-12-08T04:36:41.102Z,0
2016-12-08T04:37:41.115Z,0
2016-12-08T04:38:40.831Z,0
2016-12-08T04:39:41.164Z,0
2016-12-08T04:40:41.213Z,0
2016-12-08T04:41:40.917Z,0
2016-12-08T04:42:40.934Z,0
2016-12-08T04:43:41.574Z,0
2016-12-08T04:44:40.723Z,0
2016-12-08T04:45:41.025Z,0
2016-12-08T04:46:41.359Z,0
2016-12-08T04:47:40.769Z,0
2016-12-08T04:48:41.090Z,0
2016-12-08T04:49:41.431Z,0
2016-12-08T04:50:41.452Z,0
2016-12-08T04:51:40.876Z,0
2016-12-08T04:52:41.513Z,0
2016-12-08T04:53:41.532Z,0
2016-12-08T04:54:41.555Z,0
2016-12-08T04:55:41.276Z,0
2016-12-08T04:56:40.998Z,0
2016-12-08T04:57:41.349Z,0
2016-12-08T04:58:41.358Z,0
2016-12-08T04:59:41.378Z,0
2016-12-08T05:00:41.711Z,0
2016-12-08T05:01:41.747Z,0
2016-12-08T05:02:41.452Z,0
2016-12-08T05:03:41.181Z,0
2016-12-08T05:04:41.511Z,0
2016-12-08T05:05:41.835Z,0
2016-12-08T05:06:41.268Z,0
2016-12-08T05:07:42.189Z,0
2016-12-08T05:08:42.202Z,0
2016-12-08T05:09:41.934Z,0
2016-12-08T05:10:41.982Z,0
2016-12-08T05:11:41.995Z,0
2016-12-08T05:12:41.704Z,0
2016-12-08T05:13:42.353Z,0
2016-12-08T05:14:42.066Z,0
2016-12-08T05:15:41.794Z,0
2016-12-08T05:16:41.815Z,0
2016-12-08T05:17:41.849Z,0
2016-12-08T05:18:42.180Z,0
2016-12-08T05:19:41.610Z,0
2016-12-08T05:20:42.522Z,0
2016-12-08T05:21:41.946Z,0
2016-12-08T05:22:42.276Z,0
2016-12-08T05:23:42.304Z,0
2016-12-08T05:24:42.337Z,0
2016-12-08T05:25:42.359Z,0
2016-12-08T05:26:42.679Z,0
2016-12-08T05:27:42.112Z,0
2016-12-08T05:28:41.824Z,0
2016-12-08T05:29:42.467Z,0
2016-12-08T05:30:41.878Z,0
2016-12-08T05:31:41.911Z,0
2016-12-08T05:32:42.230Z,0
2016-12-08T05:33:42.568Z,0
2016-12-08T05:34:42.884Z,0
2016-12-08T05:35:42.302Z,0
2016-12-08T05:36:42.938Z,0
2016-12-08T05:37:42.055Z,0
2016-12-08T05:38:42.993Z,0
2016-12-08T05:39:42.720Z,0
2016-12-08T05:40:42.746Z,0
2016-12-08T05:41:42.458Z,0
2016-12-08T05:42:42.187Z,0
2016-12-08T05:43:42.510Z,0
2016-12-08T05:44:42.537Z,0
2016-12-08T05:45:42.563Z,0
2016-12-08T05:46:42.597Z,0
2016-12-08T05:47:42.615Z,0
2016-12-08T05:48:42.643Z,0
2016-12-08T05:49:42.971Z,0
2016-12-08T05:50:42.702Z,0
2016-12-08T05:51:42.414Z,0
2016-12-08T05:52:43.047Z,0
2016-12-08T05:53:42.784Z,0
2016-12-08T05:54:43.097Z,0
2016-12-08T05:55:43.125Z,0
2016-12-08T05:56:42.886Z,0
2016-12-08T05:57:43.178Z,0
2016-12-08T05:58:42.604Z,0
2016-12-08T05:59:43.232Z,0
2016-12-08T06:00:42.949Z,0
2016-12-08T06:01:43.586Z,0
2016-12-08T06:02:43.003Z,0
2016-12-08T06:03:43.035Z,0
2016-12-08T06:04:43.056Z,0
2016-12-08T06:05:43.387Z,0
2016-12-08T06:06:43.713Z,0
2016-12-08T06:07:43.440Z,0
2016-12-08T06:08:43.767Z,0
2016-12-08T06:09:43.184Z,0
2016-12-08T06:10:42.916Z,0
2016-12-08T06:11:42.933Z,0
2016-12-08T06:12:43.258Z,0
2016-12-08T06:13:43.287Z,0
2016-12-08T06:14:43.921Z,0
2016-12-08T06:15:43.343Z,0
2016-12-08T06:16:43.973Z,0
2016-12-08T06:17:43.393Z,0
2016-12-08T06:18:43.410Z,0
2016-12-08T06:19:43.439Z,0
2016-12-08T06:20:43.473Z,0
2016-12-08T06:21:43.518Z,0
2016-12-08T06:22:43.822Z,0
2016-12-08T06:23:43.550Z,0
2016-12-08T06:24:43.876Z,0
2016-12-08T06:25:43.891Z,0
2016-12-08T08:21:13.651Z,912
2016-12-08T08:21:59.684Z,888
2016-12-08T08:22:59.093Z,888
2016-12-08T08:23:59.137Z,928
2016-12-08T08:24:59.154Z,920
2016-12-08T08:25:58.866Z,892
2016-12-08T08:26:59.207Z,912
2016-12-08T08:27:59.232Z,872
2016-12-08T08:28:59.569Z,824
2016-12-08T08:29:59.277Z,852
2016-12-08T08:30:59.926Z,908
2016-12-08T08:31:59.644Z,932
2016-12-08T08:32:59.367Z,948
2016-12-08T08:33:59.698Z,940
2016-12-08T08:34:59.710Z,900
2016-12-08T08:35:59.433Z,920
2016-12-08T08:36:59.462Z,940
2016-12-08T08:38:00.115Z,988
2016-12-08T08:38:59.528Z,1252
2016-12-08T08:39:59.853Z,1456
2016-12-08T08:40:59.256Z,1484
2016-12-08T08:41:59.891Z,1468
2016-12-08T08:42:59.926Z,1444
2016-12-08T08:43:59.642Z,1436
2016-12-08T08:44:59.995Z,1428
2016-12-08T08:45:59.400Z,1412
2016-12-08T08:46:59.733Z,1412
2016-12-08T08:47:59.433Z,1412
2016-12-08T08:49:00.070Z,1388
2016-12-08T08:49:59.806Z,1352
2016-12-08T08:51:00.139Z,1288
2016-12-08T08:52:00.147Z,1248
2016-12-08T08:53:00.193Z,1232
2016-12-08T08:53:59.914Z,1224
2016-12-08T08:55:00.234Z,1208
2016-12-08T08:56:00.555Z,1204
2016-12-08T08:57:00.583Z,1184
2016-12-08T08:57:59.717Z,1172
2016-12-08T08:59:00.349Z,1164
2016-12-08T09:00:00.059Z,1172
2016-12-08T09:00:59.835Z,1156
2016-12-08T09:02:00.131Z,1144
2016-12-08T09:03:00.775Z,1144
2016-12-08T09:04:00.493Z,1132
2016-12-08T09:05:00.511Z,1124
2016-12-08T09:06:00.227Z,1116
2016-12-08T09:07:00.259Z,1108
2016-12-08T09:08:00.591Z,1080
2016-12-08T09:09:00.908Z,1084
2016-12-08T09:10:00.645Z,1068
2016-12-08T09:11:00.045Z,1060
2016-12-08T09:12:01.002Z,952
2016-12-08T09:13:00.719Z,932
2016-12-08T09:14:00.424Z,1048
2016-12-08T09:15:00.164Z,932
2016-12-08T09:16:00.793Z,920
2016-12-08T09:17:00.810Z,940
2016-12-08T09:18:00.530Z,916
2016-12-08T09:19:00.559Z,924
2016-12-08T09:20:00.599Z,936
2016-12-08T09:21:00.625Z,932
2016-12-08T09:22:00.958Z,1040
2016-12-08T09:23:00.982Z,1000
2016-12-08T09:24:01.007Z,1024
2016-12-08T09:25:01.030Z,992
2016-12-08T09:26:00.517Z,988
2016-12-08T09:27:00.477Z,996
2016-12-08T09:28:00.802Z,1044
2016-12-08T09:29:01.151Z,1036
2016-12-08T09:30:01.156Z,992
2016-12-08T09:31:00.896Z,1044
2016-12-08T09:32:01.233Z,1052
2016-12-08T09:33:01.549Z,1028
2016-12-08T09:34:00.972Z,1044
2016-12-08T09:35:00.987Z,1048
2016-12-08T09:36:01.316Z,1044
2016-12-08T09:37:01.045Z,1048
2016-12-08T09:38:01.369Z,1056
2016-12-08T09:39:01.706Z,1056
2016-12-08T09:40:01.731Z,1060
2016-12-08T09:41:01.468Z,1068
2016-12-08T09:42:01.181Z,1072
2016-12-08T09:43:01.509Z,1076
2016-12-08T09:44:01.529Z,1080
2016-12-08T09:45:01.874Z,1076
2016-12-08T09:46:00.983Z,1072
2016-12-08T09:47:01.324Z,1080
2016-12-08T09:48:01.969Z,1088
2016-12-08T09:49:01.664Z,1096
2016-12-08T09:50:01.690Z,1100
2016-12-08T09:51:01.706Z,1100
2016-12-08T09:52:01.748Z,1096
2016-12-08T09:53:01.785Z,1096
2016-12-08T09:54:02.113Z,1104
2016-12-08T09:55:01.230Z,1108
2016-12-08T09:56:02.162Z,1124
2016-12-08T09:57:01.575Z,1132
2016-12-08T09:58:01.591Z,1136
2016-12-08T09:59:01.932Z,1140
2016-12-08T10:00:02.273Z,1148
2016-12-08T10:01:02.002Z,1160
2016-12-08T10:02:01.711Z,1172
2016-12-08T10:03:02.047Z,1208
2016-12-08T10:04:01.768Z,1240
2016-12-08T10:05:02.089Z,1280
2016-12-08T10:06:01.501Z,1320
2016-12-08T10:07:02.142Z,1372
2016-12-08T10:08:02.471Z,1456
2016-12-08T10:09:02.500Z,1600
2016-12-08T10:10:01.929Z,1788
2016-12-08T10:11:01.945Z,1964
2016-12-08T10:12:02.590Z,2008
2016-12-08T10:13:02.023Z,2036
2016-12-08T10:14:02.331Z,2060
2016-12-08T10:15:02.053Z,2080
2016-12-08T10:16:02.385Z,2096
2016-12-08T10:17:01.810Z,2116
2016-12-08T10:18:02.131Z,2148
2016-12-08T10:19:01.875Z,2180
2016-12-08T10:20:02.191Z,2192
2016-12-08T10:21:02.516Z,2192
2016-12-08T10:22:01.929Z,2212
2016-12-08T10:23:02.561Z,2216
2016-12-08T10:24:01.991Z,2196
2016-12-08T10:25:02.328Z,2136
2016-12-08T10:26:02.352Z,1776
2016-12-08T10:27:02.674Z,1460
2016-12-08T10:28:02.394Z,1412
2016-12-08T10:29:02.118Z,1420
2016-12-08T10:30:02.451Z,1428
2016-12-08T10:31:02.169Z,1428
2016-12-08T10:32:02.196Z,1424
2016-12-08T10:33:02.834Z,1428
2016-12-08T10:34:02.570Z,1424
2016-12-08T10:35:03.199Z,1416
2016-12-08T10:36:02.609Z,1404
2016-12-08T10:37:02.324Z,1380
2016-12-08T10:38:02.657Z,1348
2016-12-08T10:39:02.990Z,1296
2016-12-08T10:40:02.722Z,1348
2016-12-08T10:41:03.071Z,1364
2016-12-08T10:42:03.380Z,1356
2016-12-08T10:43:03.400Z,1344
2016-12-08T10:44:03.121Z,1352
2016-12-08T10:45:02.554Z,1368
2016-12-08T10:46:02.879Z,1392
2016-12-08T10:47:02.911Z,1416
2016-12-08T10:48:03.224Z,1432
2016-12-08T10:49:02.969Z,1436
2016-12-08T10:50:03.294Z,1404
2016-12-08T10:51:03.318Z,1352
2016-12-08T10:52:03.643Z,1164
2016-12-08T10:53:03.352Z,1300
2016-12-08T10:54:02.792Z,1360
2016-12-08T10:55:03.726Z,1424
2016-12-08T10:56:03.450Z,1428
2016-12-08T10:57:03.502Z,1436
2016-12-08T10:58:03.832Z,1444
2016-12-08T10:59:03.221Z,1428
2016-12-08T11:00:03.253Z,1432
2016-12-08T11:01:02.965Z,1440
2016-12-08T11:02:03.611Z,1472
2016-12-08T11:03:03.324Z,1492
2016-12-08T11:04:03.664Z,1396
2016-12-08T11:05:03.385Z,1380
2016-12-08T11:06:04.027Z,1204
2016-12-08T11:07:03.426Z,1188
2016-12-08T11:08:03.759Z,1220
2016-12-08T11:09:03.475Z,1288
2016-12-08T11:10:03.817Z,1252
2016-12-08T11:11:03.845Z,1396
2016-12-08T11:12:03.878Z,1488
2016-12-08T11:13:03.598Z,1468
2016-12-08T11:14:03.924Z,1528
2016-12-08T11:15:03.660Z,1572
2016-12-08T11:16:03.973Z,1664
2016-12-08T11:17:03.397Z,1816
2016-12-08T11:18:04.046Z,1968
2016-12-08T11:19:04.067Z,2136
2016-12-08T11:20:03.792Z,2300
2016-12-08T11:21:03.808Z,2416
2016-12-08T11:22:04.137Z,2604
2016-12-08T11:23:04.162Z,2656
2016-12-08T11:24:04.186Z,2560
2016-12-08T11:25:03.911Z,2584
2016-12-08T11:26:03.952Z,2452
2016-12-08T11:27:04.271Z,2404
2016-12-08T11:28:04.008Z,2252
2016-12-08T11:29:04.026Z,2148
2016-12-08T11:30:03.738Z,1996
2016-12-08T11:31:04.075Z,1872
2016-12-08T11:32:03.799Z,1816
2016-12-08T11:33:04.736Z,1816
2016-12-08T11:34:04.466Z,1936
2016-12-08T11:35:04.497Z,2108
2016-12-08T11:36:03.903Z,2164
2016-12-08T11:37:03.924Z,2196
2016-12-08T11:38:03.959Z,2204
2016-12-08T11:39:04.896Z,2192
2016-12-08T11:40:04.021Z,2136
2016-12-08T11:41:04.658Z,2092
2016-12-08T11:42:04.991Z,2036
2016-12-08T11:43:04.092Z,1968
2016-12-08T11:44:04.724Z,1904
2016-12-08T11:45:04.450Z,1880
2016-12-08T11:46:04.165Z,1920
2016-12-08T11:47:04.497Z,1992
2016-12-08T11:48:05.150Z,2024
2016-12-08T11:49:04.566Z,2148
2016-12-08T11:50:04.588Z,2296
2016-12-08T11:51:04.932Z,2412
2016-12-08T11:52:04.946Z,2504
2016-12-08T11:53:04.657Z,2536
2016-12-08T11:54:04.370Z,2472
2016-12-08T11:55:04.424Z,2416
2016-12-08T11:56:05.040Z,2324
2016-12-08T11:57:05.072Z,2212
2016-12-08T11:58:04.501Z,2116
2016-12-08T11:59:04.848Z,1948
2016-12-08T12:00:05.146Z,1828
2016-12-08T12:01:05.187Z,1764
2016-12-08T12:02:05.208Z,1744
2016-12-08T12:03:04.937Z,1764
2016-12-08T12:04:04.957Z,1764
2016-12-08T12:05:05.002Z,1736
2016-12-08T12:06:05.348Z,1944
2016-12-08T12:07:05.040Z,2052
2016-12-08T12:08:05.360Z,2060
2016-12-08T12:09:05.393Z,1900
2016-12-08T12:10:05.113Z,1900
2016-12-08T12:11:04.846Z,2160
2016-12-08T12:12:05.195Z,2132
2016-12-08T12:13:05.503Z,2108
2016-12-08T12:14:05.524Z,2088
2016-12-08T12:15:05.256Z,2204
2016-12-08T12:16:05.573Z,2268
2016-12-08T12:17:05.601Z,2304
2016-12-08T12:18:05.330Z,2268
2016-12-08T12:19:05.667Z,2196
2016-12-08T12:20:05.992Z,2136
2016-12-08T12:21:05.720Z,2084
2016-12-08T12:22:05.440Z,2036
2016-12-08T12:23:05.490Z,2024
2016-12-08T12:24:05.499Z,2000
2016-12-08T12:25:05.527Z,2000
2016-12-08T12:26:05.559Z,2028
2016-12-08T12:27:05.880Z,2092
2016-12-08T12:28:05.909Z,2184
2016-12-08T12:29:05.322Z,2328
2016-12-08T12:30:05.655Z,2480
2016-12-08T12:31:05.687Z,2620
2016-12-08T12:32:05.716Z,2744
2016-12-08T12:33:06.044Z,2844
2016-12-08T12:34:05.465Z,2904
2016-12-08T12:35:06.098Z,2924
2016-12-08T12:36:05.831Z,2948
2016-12-08T12:37:06.139Z,2984
2016-12-08T12:38:06.174Z,2988
2016-12-08T12:39:05.892Z,2992
2016-12-08T12:40:05.925Z,3000
2016-12-08T12:41:05.946Z,2952
2016-12-08T12:42:05.978Z,2772
2016-12-08T12:43:06.311Z,2592
2016-12-08T12:44:06.023Z,2432
2016-12-08T12:45:06.360Z,2300
2016-12-08T12:46:06.403Z,2216
2016-12-08T12:47:06.413Z,2196
2016-12-08T12:48:06.131Z,2204
2016-12-08T12:49:06.467Z,2168
2016-12-08T12:50:06.808Z,2144
2016-12-08T12:51:06.216Z,2144
2016-12-08T12:52:06.533Z,2156
2016-12-08T12:53:06.298Z,2176
2016-12-08T12:54:06.602Z,2184
2016-12-08T12:55:06.319Z,2168
2016-12-08T12:56:06.368Z,2136
2016-12-08T12:57:06.684Z,2124
2016-12-08T12:58:06.396Z,2172
2016-12-08T12:59:06.422Z,2176
2016-12-08T13:00:06.170Z,2168
2016-12-08T13:01:06.203Z,2132
2016-12-08T13:02:06.208Z,2096
2016-12-08T13:03:06.541Z,2052
2016-12-08T13:04:06.273Z,2028
2016-12-08T13:05:06.901Z,2028
2016-12-08T13:06:06.919Z,2012
2016-12-08T13:07:06.640Z,2000
2016-12-08T13:08:06.673Z,2004
2016-12-08T13:09:06.697Z,2044
2016-12-08T13:10:06.425Z,2084
2016-12-08T13:11:06.454Z,2084
2016-12-08T13:12:07.399Z,2100
2016-12-08T13:13:06.804Z,2076
2016-12-08T13:14:07.128Z,2032
2016-12-08T13:15:06.861Z,2040
2016-12-08T13:16:06.882Z,2024
2016-12-08T13:17:07.210Z,2016
2016-12-08T13:18:06.943Z,1968
2016-12-08T13:19:07.271Z,1872
2016-12-08T13:20:07.297Z,1888
2016-12-08T13:21:07.020Z,1864
2016-12-08T13:22:07.045Z,1852
2016-12-08T13:23:06.778Z,1856
2016-12-08T13:24:06.807Z,1916
2016-12-08T13:25:07.148Z,1912
2016-12-08T13:26:07.469Z,1948
2016-12-08T13:27:06.869Z,2036
2016-12-08T13:28:06.905Z,2152
2016-12-08T13:29:06.926Z,2200
2016-12-08T13:30:07.255Z,2168
2016-12-08T13:31:07.592Z,2128
2016-12-08T13:32:07.317Z,2096
2016-12-08T13:33:07.657Z,1952
2016-12-08T13:34:07.664Z,1892
2016-12-08T13:35:07.382Z,1916
2016-12-08T13:36:07.116Z,1884
2016-12-08T13:37:07.152Z,1884
2016-12-08T13:38:07.478Z,1844
2016-12-08T13:39:07.812Z,1872
2016-12-08T13:40:07.846Z,1916
2016-12-08T13:41:07.863Z,1932
2016-12-08T13:42:07.288Z,1928
2016-12-08T13:43:08.212Z,1948
2016-12-08T13:44:07.940Z,1996
2016-12-08T13:45:07.658Z,2016
2016-12-08T13:46:07.998Z,2000
2016-12-08T13:47:07.727Z,1992
2016-12-08T13:48:07.745Z,1984
2016-12-08T13:49:07.464Z,1968
2016-12-08T13:50:07.493Z,1936
2016-12-08T13:51:08.126Z,1888
2016-12-08T13:52:08.151Z,1888
2016-12-08T13:53:08.176Z,1908
2016-12-08T13:54:07.908Z,1952
2016-12-08T13:55:07.929Z,1964
2016-12-08T13:56:08.257Z,2008
2016-12-08T13:57:07.682Z,2004
2016-12-08T13:58:08.313Z,1980
2016-12-08T13:59:08.047Z,1964
2016-12-08T14:00:08.073Z,1900
2016-12-08T14:01:08.094Z,1856
2016-12-08T14:02:08.122Z,1820
2016-12-08T14:03:08.139Z,1764
2016-12-08T14:04:08.167Z,1708
2016-12-08T14:05:08.500Z,1632
2016-12-08T14:06:07.933Z,1540
2016-12-08T14:07:08.550Z,1448
2016-12-08T14:08:08.286Z,1376
2016-12-08T14:09:08.623Z,1296
2016-12-08T14:10:08.019Z,1244
2016-12-08T14:11:08.951Z,1216
2016-12-08T14:12:08.073Z,1216
2016-12-08T14:13:08.413Z,1224
2016-12-08T14:14:08.750Z,1228
2016-12-08T14:15:08.467Z,1212
2016-12-08T14:16:09.101Z,1184
2016-12-08T14:17:08.521Z,1204
2016-12-08T14:18:08.842Z,1228
2016-12-08T14:19:08.265Z,1216
2016-12-08T14:20:08.606Z,1172
2016-12-08T14:21:09.239Z,1136
2016-12-08T14:22:08.652Z,1108
2016-12-08T14:23:08.985Z,1084
2016-12-08T14:24:09.041Z,1056
2016-12-08T14:25:09.034Z,1020
2016-12-08T14:26:08.454Z,992
2016-12-08T14:27:09.099Z,964
2016-12-08T14:28:09.112Z,940
2016-12-08T14:29:09.157Z,916
2016-12-08T14:30:09.170Z,896
2016-12-08T14:31:09.207Z,876
2016-12-08T14:32:08.911Z,868
2016-12-08T14:33:09.251Z,860
2016-12-08T14:34:09.576Z,848
2016-12-08T14:35:09.333Z,832
2016-12-08T14:36:09.022Z,820
2016-12-08T14:37:09.355Z,804
2016-12-08T14:38:09.091Z,784
2016-12-08T14:39:09.108Z,756
2016-12-08T14:40:09.134Z,724
2016-12-08T14:41:09.162Z,692
2016-12-08T14:42:09.803Z,660
2016-12-08T14:43:08.932Z,640
2016-12-08T14:44:09.548Z,616
2016-12-08T14:45:09.273Z,596
2016-12-08T14:46:09.905Z,584
2016-12-08T14:47:09.630Z,568
2016-12-08T14:48:09.050Z,556
2016-12-08T14:49:09.380Z,544
2016-12-08T14:50:09.097Z,528
2016-12-08T14:51:09.437Z,512
2016-12-08T14:52:09.464Z,500
2016-12-08T14:53:09.779Z,488
2016-12-08T14:54:09.207Z,476
2016-12-08T14:55:09.536Z,460
2016-12-08T14:56:09.566Z,448
2016-12-08T14:57:10.201Z,440
2016-12-08T14:58:09.626Z,424
2016-12-08T14:59:09.950Z,412
2016-12-08T15:00:09.963Z,400
2016-12-08T15:01:10.008Z,384
2016-12-08T15:02:09.721Z,372
2016-12-08T15:03:10.074Z,360
2016-12-08T15:04:09.782Z,344
2016-12-08T15:05:09.807Z,332
2016-12-08T15:06:10.137Z,316
2016-12-08T15:07:09.546Z,296
2016-12-08T15:08:09.578Z,280
2016-12-08T15:09:09.902Z,260
2016-12-08T15:10:10.235Z,248
2016-12-08T15:11:09.960Z,232
2016-12-08T15:12:10.297Z,216
2016-12-08T15:13:10.329Z,200
2016-12-08T15:14:10.038Z,188
2016-12-08T15:15:10.367Z,176
2016-12-08T15:16:10.391Z,164
2016-12-08T15:17:09.824Z,152
2016-12-08T15:18:10.459Z,140
2016-12-08T15:19:10.787Z,132
2016-12-08T15:20:09.902Z,124
2016-12-08T15:21:10.523Z,116
2016-12-08T15:22:10.244Z,104
2016-12-08T15:23:10.282Z,96
2016-12-08T15:24:10.609Z,92
2016-12-08T15:25:10.649Z,84
2016-12-08T15:26:10.067Z,76
2016-12-08T15:27:10.392Z,72
2016-12-08T15:28:10.405Z,68
2016-12-08T15:29:10.441Z,64
2016-12-08T15:30:10.465Z,60
2016-12-08T15:31:10.494Z,56
2016-12-08T15:32:10.535Z,56
2016-12-08T15:33:10.566Z,52
2016-12-08T15:34:11.182Z,52
2016-12-08T15:35:10.585Z,48
2016-12-08T15:36:10.326Z,48
2016-12-08T15:37:10.659Z,44
2016-12-08T15:38:10.987Z,44
2016-12-08T15:39:11.026Z,40
2016-12-08T15:40:11.341Z,40
2016-12-08T15:41:11.070Z,36
2016-12-08T15:42:11.080Z,36
2016-12-08T15:43:11.111Z,28
2016-12-08T15:44:10.852Z,28
2016-12-08T15:45:10.556Z,28
2016-12-08T15:46:11.187Z,20
2016-12-08T15:47:11.218Z,20
2016-12-08T15:48:11.242Z,20
2016-12-08T15:49:11.571Z,16
2016-12-08T15:50:11.000Z,16
2016-12-08T15:51:11.322Z,12
2016-12-08T15:52:11.345Z,12
2016-12-08T15:53:11.387Z,8
2016-12-08T15:54:11.419Z,8
2016-12-08T15:55:11.125Z,4
2016-12-08T15:56:11.455Z,4
2016-12-08T15:57:10.881Z,4